Time;durP1;ratioP1;P1;durP2;ratioP2;P2;SDS_P1;SDS_P2;PMS_P1;PMS_P2;Temp;Humidity;BMP_temperature;BMP_pressure;BME280_temperature;BME280_humidity;BME280_pressure;Samples;Min_cycle;Max_cycle;Signal;HPM_P1;HPM_P2
2022/01/27 00:01:59;;;;;;;2.97;0.73;;;;;;;10.46;100.00;100643.69;5069173;28;20071;-51
2022/01/27 00:08:20;;;;;;;1.08;0.43;;;;;;;10.63;100.00;100629.06;5021808;28;20060;-51
2022/01/27 00:11:24;;;;;;;1.17;1.05;;;;;;;10.71;100.00;100620.44;4995071;28;20057;-51
2022/01/27 00:14:28;;;;;;;0.95;0.30;;;;;;;10.71;100.00;100614.84;5036778;28;20067;-51
2022/01/27 00:17:32;;;;;;;0.77;0.60;;;;;;;10.66;100.00;100619.78;5009192;28;20068;-51
2022/01/27 00:20:36;;;;;;;1.35;0.25;;;;;;;10.65;100.00;100618.22;5020787;28;20049;-51
2022/01/27 00:23:41;;;;;;;8.45;0.52;;;;;;;10.59;100.00;100622.84;5027693;28;20060;-51
2022/01/27 00:26:45;;;;;;;0.40;0.40;;;;;;;10.63;100.00;100623.47;5036003;28;20135;-50
2022/01/27 00:29:48;;;;;;;0.73;0.40;;;;;;;10.67;100.00;100609.44;5068187;28;20051;-50
2022/01/27 00:32:52;;;;;;;0.20;0.10;;;;;;;10.72;100.00;100610.84;5035048;28;20056;-50
2022/01/27 00:35:55;;;;;;;0.10;0.10;;;;;;;10.84;100.00;100615.53;5050225;28;20055;-50
2022/01/27 00:38:59;;;;;;;0.65;0.38;;;;;;;10.89;100.00;100615.72;5027319;28;20076;-50
2022/01/27 00:42:03;;;;;;;0.17;0.17;;;;;;;10.79;100.00;100621.69;5017726;28;20068;-50
2022/01/27 00:45:07;;;;;;;0.30;0.25;;;;;;;10.74;100.00;100613.97;5007648;28;20064;-51
2022/01/27 00:48:11;;;;;;;0.10;0.10;;;;;;;10.78;100.00;100609.78;5048864;28;20060;-51
2022/01/27 00:51:25;;;;;;;0.10;0.00;;;;;;;10.87;100.00;100601.44;5048447;28;20076;-50
2022/01/27 00:54:29;;;;;;;2.58;0.32;;;;;;;10.80;100.00;100600.97;5010540;28;20060;-50
2022/01/27 01:00:41;;;;;;;0.82;0.13;;;;;;;10.95;100.00;100602.72;5045467;28;20040;-51
2022/01/27 01:03:48;;;;;;;0.20;0.17;;;;;;;10.80;100.00;100606.53;5016000;28;20077;-51
2022/01/27 01:06:52;;;;;;;0.20;0.20;;;;;;;10.89;100.00;100612.16;5013917;28;20397;-50
2022/01/27 01:10:41;;;;;;;1.27;0.65;;;;;;;10.88;100.00;100603.00;5018496;28;20065;-50
2022/01/27 01:30:05;;;;;;;0.30;0.10;;;;;;;10.96;100.00;100551.31;5071717;28;20266;-51
2022/01/27 01:33:19;;;;;;;1.27;0.20;;;;;;;11.00;100.00;100551.94;5071297;28;20064;-51
2022/01/27 01:36:36;;;;;;;0.10;0.10;;;;;;;11.03;100.00;100547.47;5034074;28;20579;-51
2022/01/27 01:39:42;;;;;;;0.30;0.22;;;;;;;11.07;100.00;100564.81;5031642;28;20065;-51
2022/01/27 01:42:46;;;;;;;0.08;0.00;;;;;;;11.14;100.00;100553.38;5031861;28;20465;-51
2022/01/27 01:45:50;;;;;;;5.57;0.22;;;;;;;11.17;100.00;100541.31;5035372;28;20064;-51
2022/01/27 01:48:53;;;;;;;0.20;0.20;;;;;;;11.20;100.00;100540.34;5011219;28;20056;-51
2022/01/27 01:52:03;;;;;;;3.63;0.30;;;;;;;11.17;100.00;100541.31;4997929;28;20056;-51
2022/01/27 01:55:08;;;;;;;0.30;0.10;;;;;;;11.13;100.00;100530.28;5016128;28;20056;-51
2022/01/27 01:58:12;;;;;;;0.10;0.10;;;;;;;11.25;100.00;100536.97;4995177;28;20504;-51
2022/01/27 02:01:17;;;;;;;0.65;0.40;;;;;;;11.16;100.00;100532.16;4996512;28;20101;-51
2022/01/27 02:04:21;;;;;;;0.32;0.28;;;;;;;11.24;100.00;100538.22;5021410;28;20540;-51
2022/01/27 02:20:51;;;;;;;0.90;0.13;;;;;;;11.15;100.00;100543.78;5004571;28;20171;-51
2022/01/27 02:23:54;;;;;;;0.50;0.13;;;;;;;11.14;100.00;100536.63;5051417;28;20067;-51
2022/01/27 02:27:00;;;;;;;4.35;0.63;;;;;;;11.09;100.00;100542.81;4958906;28;20054;-52
2022/01/27 02:30:04;;;;;;;0.17;0.17;;;;;;;10.94;100.00;100533.50;4965710;28;20113;-50
2022/01/27 02:33:07;;;;;;;0.10;0.10;;;;;;;11.03;100.00;100541.88;4954813;28;20062;-51
2022/01/27 02:36:11;;;;;;;7.30;0.98;;;;;;;10.99;100.00;100536.47;4956685;28;20069;-51
2022/01/27 02:39:15;;;;;;;0.10;0.10;;;;;;;10.98;100.00;100523.00;4975374;28;20099;-51
2022/01/27 02:42:33;;;;;;;0.10;0.00;;;;;;;11.05;100.00;100528.25;4990738;28;20065;-50
2022/01/27 02:45:59;;;;;;;1.55;0.50;;;;;;;11.04;100.00;100518.38;4962006;28;20460;-50
2022/01/27 02:49:03;;;;;;;0.95;0.52;;;;;;;11.03;100.00;100509.22;4991241;28;20066;-50
2022/01/27 02:52:07;;;;;;;0.50;0.38;;;;;;;11.17;100.00;100499.47;4953834;28;20126;-51
2022/01/27 02:55:11;;;;;;;0.10;0.00;;;;;;;11.18;100.00;100489.88;4952375;28;20061;-51
2022/01/27 02:58:15;;;;;;;0.63;0.20;;;;;;;11.07;100.00;100497.91;4953065;28;20056;-51
2022/01/27 03:01:21;;;;;;;0.30;0.15;;;;;;;11.14;100.00;100498.41;4991798;28;20053;-51
2022/01/27 03:04:25;;;;;;;0.10;0.10;;;;;;;11.15;100.00;100504.75;4974770;28;20138;-51
2022/01/27 03:07:28;;;;;;;0.10;0.00;;;;;;;11.16;100.00;100495.13;4990478;28;20062;-50
2022/01/27 03:10:38;;;;;;;0.10;0.10;;;;;;;11.09;100.00;100501.00;4990766;28;20077;-51
2022/01/27 03:13:42;;;;;;;6.25;0.30;;;;;;;10.98;100.00;100495.13;4984468;28;20101;-51
2022/01/27 03:16:45;;;;;;;1.40;0.57;;;;;;;11.05;100.00;100494.81;4985347;28;20061;-51
2022/01/27 03:19:49;;;;;;;0.63;0.15;;;;;;;11.31;100.00;100482.13;4936068;28;20062;-51
2022/01/27 03:22:52;;;;;;;2.40;0.10;;;;;;;11.19;100.00;100497.78;5024632;28;20056;-51
2022/01/27 03:25:55;;;;;;;0.10;0.10;;;;;;;11.06;100.00;100508.31;5023534;28;20467;-51
2022/01/27 03:28:59;;;;;;;0.10;0.00;;;;;;;11.17;100.00;100507.84;5013881;28;20059;-51
2022/01/27 03:32:03;;;;;;;0.10;0.10;;;;;;;11.19;100.00;100499.78;5049406;28;20056;-51
2022/01/27 03:35:07;;;;;;;0.20;0.10;;;;;;;11.18;100.00;100509.38;4987117;28;20072;-51
2022/01/27 03:38:10;;;;;;;6.32;0.30;;;;;;;11.21;100.00;100502.88;5021447;28;20056;-51
2022/01/27 03:41:19;;;;;;;3.63;0.40;;;;;;;11.25;100.00;100489.56;5004146;28;20133;-51
2022/01/27 03:44:23;;;;;;;0.20;0.20;;;;;;;11.29;100.00;100492.97;4974877;28;20064;-51
2022/01/27 03:47:26;;;;;;;1.58;0.65;;;;;;;11.30;100.00;100494.53;5009161;28;20565;-51
2022/01/27 03:50:30;;;;;;;0.10;0.00;;;;;;;11.26;100.00;100496.72;4999021;28;20100;-50
2022/01/27 03:53:33;;;;;;;0.10;0.10;;;;;;;11.22;100.00;100488.47;5028563;28;20608;-50
2022/01/27 03:56:37;;;;;;;0.32;0.10;;;;;;;11.16;100.00;100484.75;5011620;28;22498;-51
2022/01/27 03:59:41;;;;;;;0.10;0.00;;;;;;;11.18;100.00;100492.66;5007085;28;20521;-51
2022/01/27 04:03:02;;;;;;;0.10;0.10;;;;;;;11.28;100.00;100474.72;4970686;28;20509;-50
2022/01/27 04:06:10;;;;;;;0.47;0.20;;;;;;;11.37;100.00;100480.25;4988043;28;20060;-50
2022/01/27 04:09:13;;;;;;;0.10;0.00;;;;;;;11.42;100.00;100485.22;5013213;28;20397;-50
2022/01/27 04:12:17;;;;;;;0.40;0.10;;;;;;;11.44;100.00;100488.31;4993245;28;20056;-51
2022/01/27 04:15:20;;;;;;;0.08;0.00;;;;;;;11.40;100.00;100485.69;5029314;28;20525;-51
2022/01/27 04:18:24;;;;;;;0.30;0.10;;;;;;;11.30;100.00;100494.53;5008239;28;20056;-50
2022/01/27 04:21:28;;;;;;;0.20;0.20;;;;;;;11.48;100.00;100483.34;4995658;28;21005;-50
2022/01/27 04:24:32;;;;;;;0.35;0.28;;;;;;;11.49;100.00;100490.50;5021569;28;20061;-50
2022/01/27 04:27:38;;;;;;;1.33;0.20;;;;;;;11.48;100.00;100494.50;4979384;28;20399;-50
2022/01/27 04:30:42;;;;;;;3.40;0.28;;;;;;;11.46;100.00;100496.25;4984764;28;20064;-51
2022/01/27 04:33:45;;;;;;;0.95;0.20;;;;;;;11.44;100.00;100485.53;4998529;28;20101;-50
2022/01/27 04:36:48;;;;;;;0.10;0.10;;;;;;;11.45;100.00;100495.47;5002106;28;20060;-50
2022/01/27 04:40:01;;;;;;;0.73;0.30;;;;;;;11.41;100.00;100494.84;4940952;29;20511;-51
2022/01/27 04:49:12;;;;;;;0.15;0.15;;;;;;;11.38;100.00;100506.91;4981791;28;20112;-51
2022/01/27 04:52:16;;;;;;;0.65;0.10;;;;;;;11.41;100.00;100506.00;4988856;28;20101;-51
2022/01/27 04:55:21;;;;;;;0.10;0.10;;;;;;;11.43;100.00;100500.72;4998510;28;20053;-51
2022/01/27 04:58:32;;;;;;;0.10;0.10;;;;;;;11.44;100.00;100488.31;5012782;28;20053;-50
2022/01/27 05:01:41;;;;;;;0.38;0.08;;;;;;;11.42;100.00;100497.16;5012051;28;20450;-50
2022/01/27 05:04:49;;;;;;;0.13;0.10;;;;;;;11.39;100.00;100502.91;4998892;28;20419;-50
2022/01/27 05:07:59;;;;;;;0.15;0.15;;;;;;;11.41;100.00;100506.00;4974301;28;20056;-50
2022/01/27 05:14:27;;;;;;;0.30;0.22;;;;;;;11.48;100.00;100488.19;4987332;28;20060;-50
2022/01/27 05:17:31;;;;;;;0.10;0.10;;;;;;;11.43;100.00;100495.91;4993070;28;20136;-51
2022/01/27 05:20:34;;;;;;;2.60;0.10;;;;;;;11.43;100.00;100509.09;5010398;28;20052;-50
2022/01/27 05:23:37;;;;;;;0.10;0.00;;;;;;;11.52;100.00;100503.50;5035586;28;20064;-50
2022/01/27 05:26:41;;;;;;;0.10;0.10;;;;;;;11.55;100.00;100505.34;5022376;28;20064;-50
2022/01/27 05:29:44;;;;;;;0.57;0.20;;;;;;;11.56;100.00;100511.72;5035219;28;20528;-50
2022/01/27 05:32:48;;;;;;;2.15;0.32;;;;;;;11.53;100.00;100512.63;5037795;28;20064;-50
2022/01/27 05:35:51;;;;;;;1.30;0.28;;;;;;;11.56;100.00;100515.28;4988122;28;20092;-50
2022/01/27 05:38:55;;;;;;;0.20;0.10;;;;;;;11.53;100.00;100516.22;5049998;28;20538;-50
2022/01/27 05:41:58;;;;;;;0.20;0.20;;;;;;;11.55;100.00;100515.72;4993059;28;20069;-50
2022/01/27 05:45:03;;;;;;;0.80;0.20;;;;;;;11.46;100.00;100502.56;4974337;28;20081;-50
2022/01/27 05:48:06;;;;;;;1.88;0.30;;;;;;;11.43;100.00;100509.09;5002175;28;20065;-50
2022/01/27 05:51:12;;;;;;;0.90;0.22;;;;;;;11.34;100.00;100512.66;5008753;28;20516;-50
2022/01/27 05:54:16;;;;;;;0.63;0.38;;;;;;;11.39;100.00;100508.47;4988982;28;20056;-50
2022/01/27 05:57:20;;;;;;;0.52;0.38;;;;;;;11.44;100.00;100516.97;5019053;28;20061;-50
2022/01/27 06:00:23;;;;;;;0.10;0.05;;;;;;;11.48;100.00;100519.59;5031552;28;20072;-50
2022/01/27 06:03:26;;;;;;;0.60;0.60;;;;;;;11.54;100.00;100528.16;5019262;28;20060;-50
2022/01/27 06:06:30;;;;;;;0.52;0.20;;;;;;;11.49;100.00;100528.75;5010941;28;20060;-49
2022/01/27 06:09:34;;;;;;;0.57;0.20;;;;;;;11.50;100.00;100528.28;5033764;28;20080;-49
2022/01/27 06:12:47;;;;;;;9.80;0.45;;;;;;;11.63;100.00;100526.09;5006799;28;20061;-49
2022/01/27 06:15:50;;;;;;;0.20;0.20;;;;;;;11.62;100.00;100537.75;4991138;28;20060;-49
2022/01/27 06:18:54;;;;;;;0.63;0.35;;;;;;;11.63;100.00;100528.16;5007055;28;20060;-49
2022/01/27 06:21:57;;;;;;;0.10;0.00;;;;;;;11.65;100.00;100520.84;5058492;28;20054;-49
2022/01/27 06:25:01;;;;;;;0.43;0.30;;;;;;;11.65;100.00;100520.84;5122683;27;20125;-50
2022/01/27 06:28:05;;;;;;;6.30;0.95;;;;;;;11.69;100.00;100532.66;5080998;28;20059;-49
2022/01/27 06:31:08;;;;;;;4.63;0.95;;;;;;;11.68;100.00;100533.88;5037491;28;20560;-49
2022/01/27 06:34:12;;;;;;;7.53;3.25;;;;;;;11.72;100.00;100531.72;5010978;28;20060;-49
2022/01/27 06:37:16;;;;;;;8.23;1.75;;;;;;;11.78;100.00;100534.66;5018820;28;20500;-49
2022/01/27 06:40:19;;;;;;;6.88;1.85;;;;;;;11.82;100.00;100536.06;4981072;28;20093;-49
2022/01/27 06:43:23;;;;;;;2.42;1.80;;;;;;;11.80;100.00;100532.19;4991350;28;20061;-49
2022/01/27 06:46:26;;;;;;;3.10;0.75;;;;;;;11.81;100.00;100533.72;4953537;28;20105;-50
2022/01/27 06:49:29;;;;;;;3.15;0.70;;;;;;;11.82;100.00;100530.47;4938219;28;20057;-50
2022/01/27 06:52:33;;;;;;;2.70;0.80;;;;;;;11.78;100.00;100527.03;4981897;28;20100;-50
2022/01/27 06:55:38;;;;;;;0.90;0.30;;;;;;;11.77;100.00;100528.31;5049814;28;20071;-50
2022/01/27 06:58:41;;;;;;;2.28;1.30;;;;;;;11.82;100.00;100522.09;5049879;28;20068;-51
2022/01/27 07:01:44;;;;;;;1.85;0.55;;;;;;;11.90;100.00;100526.13;5019097;28;20099;-50
2022/01/27 07:04:47;;;;;;;1.05;0.57;;;;;;;11.92;100.00;100528.44;5024947;28;20064;-50
2022/01/27 07:07:51;;;;;;;1.10;0.55;;;;;;;11.93;100.00;100535.56;5051391;28;20059;-50
2022/01/27 07:10:55;;;;;;;2.10;0.52;;;;;;;11.96;100.00;100535.41;5062740;28;20059;-51
2022/01/27 07:13:58;;;;;;;1.15;0.35;;;;;;;11.97;100.00;100536.97;5083777;28;20074;-51
2022/01/27 07:17:03;;;;;;;2.05;0.35;;;;;;;11.95;100.00;100545.00;5050913;28;20051;-50
2022/01/27 07:20:08;;;;;;;1.55;0.60;;;;;;;12.02;100.00;100550.25;5081278;28;20125;-50
2022/01/27 07:23:11;;;;;;;1.23;0.40;;;;;;;11.93;100.00;100552.31;5081762;27;20063;-50
2022/01/27 07:26:16;;;;;;;0.45;0.22;;;;;;;11.86;100.00;100563.78;5039355;28;20060;-51
2022/01/27 07:29:20;;;;;;;0.55;0.30;;;;;;;11.94;100.00;100565.78;5006114;28;20409;-51
2022/01/27 07:32:23;;;;;;;5.20;0.90;;;;;;;11.95;100.00;100577.75;4978795;28;20057;-51
2022/01/27 07:35:27;;;;;;;1.25;0.80;;;;;;;11.96;100.00;100580.06;4998614;28;20061;-51
2022/01/27 07:38:30;;;;;;;1.95;0.68;;;;;;;11.96;100.00;100579.28;4999329;28;20053;-51
2022/01/27 07:41:33;;;;;;;1.38;0.80;;;;;;;11.88;100.00;100589.22;5009451;28;20529;-51
2022/01/27 07:44:37;;;;;;;1.92;1.02;;;;;;;11.88;100.00;100590.00;4996273;28;20066;-51
2022/01/27 07:47:41;;;;;;;0.70;0.32;;;;;;;11.85;100.00;100590.91;5010497;28;20077;-51
2022/01/27 07:50:44;;;;;;;0.45;0.20;;;;;;;11.79;100.00;100601.16;4984102;28;20427;-51
2022/01/27 07:53:48;;;;;;;0.17;0.17;;;;;;;11.66;100.00;100597.72;4941813;29;20058;-51
2022/01/27 07:56:52;;;;;;;0.75;0.30;;;;;;;11.63;100.00;100612.59;4984462;28;20053;-51
2022/01/27 07:59:55;;;;;;;3.10;0.82;;;;;;;11.63;100.00;100607.00;5049849;28;20059;-51
2022/01/27 08:02:59;;;;;;;1.05;0.57;;;;;;;11.72;100.00;100611.84;5073976;27;20091;-51
2022/01/27 08:06:04;;;;;;;0.52;0.22;;;;;;;11.69;100.00;100610.00;5047503;28;20067;-51
2022/01/27 08:09:08;;;;;;;0.38;0.28;;;;;;;11.56;100.00;100612.91;5050403;28;20063;-51
2022/01/27 08:12:11;;;;;;;0.65;0.38;;;;;;;11.45;100.00;100640.50;5074225;27;20059;-51
2022/01/27 08:15:18;;;;;;;0.98;0.40;;;;;;;11.50;100.00;100625.16;5084325;28;20058;-51
2022/01/27 08:18:22;;;;;;;2.58;0.47;;;;;;;11.61;100.00;100626.22;5079395;28;20530;-51
2022/01/27 08:21:26;;;;;;;0.68;0.50;;;;;;;11.63;100.00;100629.34;5079762;28;20051;-51
2022/01/27 08:24:29;;;;;;;1.95;0.30;;;;;;;11.56;100.00;100632.44;5079215;28;20059;-51
2022/01/27 08:27:33;;;;;;;3.63;0.95;;;;;;;11.51;100.00;100638.63;5089510;28;20415;-51
2022/01/27 08:30:42;;;;;;;1.67;0.55;;;;;;;11.43;100.00;100656.91;5047825;28;20099;-51
2022/01/27 08:33:46;;;;;;;1.00;0.57;;;;;;;11.35;100.00;100652.84;4989982;28;20068;-51
2022/01/27 08:36:49;;;;;;;9.10;1.08;;;;;;;11.28;100.00;100647.59;5018936;28;20056;-51
2022/01/27 08:39:54;;;;;;;0.57;0.25;;;;;;;11.29;100.00;100654.69;4998925;28;20083;-51
2022/01/27 08:42:59;;;;;;;2.92;1.23;;;;;;;11.22;100.00;100666.91;4975260;28;20065;-51
2022/01/27 08:46:02;;;;;;;0.98;0.35;;;;;;;11.14;100.00;100670.44;4983716;28;20073;-51
2022/01/27 08:49:06;;;;;;;0.73;0.30;;;;;;;11.05;100.00;100673.19;4975153;28;20451;-51
2022/01/27 08:52:10;;;;;;;3.72;0.52;;;;;;;10.91;100.00;100676.56;4947522;28;20062;-51
2022/01/27 08:55:13;;;;;;;2.42;0.55;;;;;;;10.89;100.00;100681.81;4975683;28;20101;-50
2022/01/27 08:58:17;;;;;;;2.75;0.30;;;;;;;10.90;100.00;100688.94;4975140;28;20534;-54
2022/01/27 09:01:23;;;;;;;3.90;0.25;;;;;;;10.95;100.00;100697.47;4993397;28;20426;-54
2022/01/27 09:04:26;;;;;;;0.32;0.20;;;;;;;10.86;100.00;100688.28;5008681;28;20076;-54
2022/01/27 09:07:29;;;;;;;0.10;0.05;;;;;;;10.86;100.00;100693.88;5039464;28;20064;-54
2022/01/27 09:10:33;;;;;;;1.75;0.75;;;;;;;10.84;100.00;100699.13;5027618;28;20545;-54
2022/01/27 09:13:38;;;;;;;0.40;0.28;;;;;;;10.86;100.00;100702.22;5083374;28;20066;-51
2022/01/27 09:16:42;;;;;;;4.20;0.32;;;;;;;10.73;100.00;100718.25;5095357;28;20063;-54
2022/01/27 09:19:46;;;;;;;0.40;0.40;;;;;;;11.00;100.00;100726.78;5062160;28;20056;-54
2022/01/27 09:22:52;;;;;;;0.20;0.20;;;;;;;11.10;100.00;100731.16;5055671;28;20060;-54
2022/01/27 09:26:02;;;;;;;1.48;1.00;;;;;;;11.21;100.00;100745.44;5040729;28;20055;-54
2022/01/27 09:29:06;;;;;;;0.30;0.30;;;;;;;11.23;100.00;100734.59;5050332;28;20408;-54
2022/01/27 09:32:09;;;;;;;0.52;0.10;;;;;;;11.24;100.00;100745.28;5050993;28;20484;-54
2022/01/27 09:35:13;;;;;;;0.77;0.77;;;;;;;11.35;100.00;100744.88;5052663;28;20063;-51
2022/01/27 09:38:17;;;;;;;2.30;0.40;;;;;;;11.39;100.00;100742.75;5104968;28;20497;-51
2022/01/27 09:41:22;;;;;;;0.52;0.20;;;;;;;11.49;100.00;100743.53;5058058;28;20447;-51
2022/01/27 09:44:29;;;;;;;0.95;0.73;;;;;;;11.52;100.00;100746.16;5091676;28;20059;-51
2022/01/27 09:47:35;;;;;;;1.70;0.40;;;;;;;11.55;100.00;100755.63;5110523;28;20503;-51
2022/01/27 09:51:21;;;;;;;1.65;0.47;;;;;;;11.59;100.00;100745.09;5083412;28;20186;-51
2022/01/27 09:54:14;;;;;;;1.17;0.57;;;;;;;11.61;100.00;100748.22;5060343;28;20075;-51
2022/01/27 09:57:17;;;;;;;1.95;0.70;;;;;;;11.64;100.00;100742.50;5081250;28;20075;-51
2022/01/27 10:00:22;;;;;;;0.40;0.30;;;;;;;11.64;100.00;100745.28;5073091;28;20059;-51
2022/01/27 10:03:28;;;;;;;3.42;0.63;;;;;;;11.63;100.00;100745.75;5062213;28;20451;-53
2022/01/27 10:06:35;;;;;;;7.63;0.85;;;;;;;11.54;100.00;100740.94;5061441;28;20612;-54
2022/01/27 10:09:38;;;;;;;0.80;0.75;;;;;;;11.50;100.00;100742.31;5059056;28;20064;-54
2022/01/27 10:12:51;;;;;;;0.25;0.20;;;;;;;11.37;100.00;100745.97;5073755;28;20075;-54
2022/01/27 10:15:56;;;;;;;4.40;0.75;;;;;;;11.40;100.00;100750.63;5067793;28;20538;-54
2022/01/27 10:19:04;;;;;;;0.32;0.32;;;;;;;11.37;100.00;100761.91;5079503;28;20067;-54
2022/01/27 10:22:13;;;;;;;0.43;0.30;;;;;;;11.42;100.00;100772.47;5059024;28;20055;-53
2022/01/27 10:25:21;;;;;;;0.77;0.10;;;;;;;11.32;100.00;100759.75;5070855;28;20097;-54
2022/01/27 10:32:04;;;;;;;0.17;0.10;;;;;;;11.19;100.00;100767.44;5066160;28;20135;-53
2022/01/27 10:35:09;;;;;;;1.42;0.22;;;;;;;11.12;100.00;100773.28;5082446;27;20411;-53
2022/01/27 10:38:14;;;;;;;9.45;1.20;;;;;;;11.15;100.00;100783.53;5081301;28;20079;-53
2022/01/27 10:41:18;;;;;;;0.10;0.00;;;;;;;11.13;100.00;100774.84;5042906;28;20055;-54
2022/01/27 10:44:23;;;;;;;0.20;0.20;;;;;;;11.09;100.00;100776.97;5083531;28;20052;-54
2022/01/27 10:47:31;;;;;;;0.30;0.10;;;;;;;11.07;100.00;100785.78;5065108;28;20048;-53
2022/01/27 10:50:56;;;;;;;0.77;0.20;;;;;;;11.09;100.00;100800.06;5072016;28;20063;-53
2022/01/27 10:54:22;;;;;;;0.85;0.55;;;;;;;11.19;100.00;100806.47;5083021;28;20075;-54
2022/01/27 10:57:27;;;;;;;4.28;0.50;;;;;;;11.30;100.00;100823.56;5094056;27;20416;-54
2022/01/27 11:00:36;;;;;;;0.57;0.50;;;;;;;11.32;100.00;100837.81;5093234;28;20050;-54
2022/01/27 11:03:48;;;;;;;4.68;1.50;;;;;;;11.42;100.00;100845.00;5060970;28;20072;-54
2022/01/27 11:07:01;;;;;;;11.88;0.55;;;;;;;11.38;100.00;100841.56;5045842;28;20430;-53
2022/01/27 11:10:05;;;;;;;8.68;0.40;;;;;;;11.44;100.00;100843.31;4980905;28;20422;-54
2022/01/27 11:13:08;;;;;;;5.57;0.57;;;;;;;11.39;100.00;100843.16;4976295;28;20070;-53
2022/01/27 11:16:16;;;;;;;0.40;0.40;;;;;;;11.35;100.00;100834.09;4967072;28;20197;-53
2022/01/27 11:19:34;;;;;;;0.13;0.10;;;;;;;11.40;100.00;100823.16;4990991;28;20092;-54
2022/01/27 11:22:45;;;;;;;5.00;1.42;;;;;;;11.55;100.00;100823.38;4999136;28;20383;-53
2022/01/27 11:25:52;;;;;;;7.35;3.78;;;;;;;11.57;100.00;100834.84;5009431;28;20133;-54
2022/01/27 11:28:57;;;;;;;1.70;0.13;;;;;;;11.77;100.00;100834.47;5008884;28;20057;-53
2022/01/27 11:32:25;;;;;;;0.30;0.30;;;;;;;12.11;100.00;100851.81;4999815;28;20060;-54
2022/01/27 11:35:29;;;;;;;2.10;0.80;;;;;;;12.38;100.00;100850.31;4989515;28;20057;-54
2022/01/27 11:38:33;;;;;;;0.10;0.10;;;;;;;12.55;100.00;100840.38;4998650;28;20057;-53
2022/01/27 11:41:36;;;;;;;2.22;0.50;;;;;;;12.66;100.00;100849.88;5022419;28;20061;-54
2022/01/27 11:44:43;;;;;;;0.10;0.00;;;;;;;12.78;100.00;100845.34;4974745;28;20086;-54
2022/01/27 11:47:53;;;;;;;0.25;0.25;;;;;;;12.72;100.00;100836.03;4978569;28;20386;-53
2022/01/27 11:50:59;;;;;;;4.03;0.20;;;;;;;12.63;100.00;100852.78;4989894;28;20098;-53
2022/01/27 11:54:26;;;;;;;0.10;0.10;;;;;;;12.51;100.00;100856.53;4948125;28;20101;-54
2022/01/27 11:57:43;;;;;;;4.68;0.90;;;;;;;12.43;100.00;100866.47;4990137;28;20219;-54
2022/01/27 12:01:14;;;;;;;0.43;0.38;;;;;;;12.29;100.00;100858.66;4989164;28;20061;-53
2022/01/27 12:04:25;;;;;;;3.17;0.73;;;;;;;12.15;100.00;100863.59;4950081;28;20069;-53
2022/01/27 12:07:29;;;;;;;;;;;;;;;11.95;100.00;100866.00;5013358;28;20131;-53
2022/01/27 12:10:52;;;;;;;1.45;0.30;;;;;;;11.80;100.00;100878.22;5041622;28;19916;-53
2022/01/27 12:14:00;;;;;;;1.52;0.70;;;;;;;11.73;100.00;100887.66;5040798;28;20567;-53
2022/01/27 12:17:09;;;;;;;0.40;0.40;;;;;;;11.75;100.00;100876.81;5048028;28;20056;-54
2022/01/27 12:20:13;;;;;;;1.00;0.35;;;;;;;11.83;100.00;100902.41;5011642;28;20083;-53
2022/01/27 12:23:19;;;;;;;0.20;0.20;;;;;;;11.92;100.00;100897.66;5017512;28;20063;-53
2022/01/27 12:26:44;;;;;;;3.22;0.70;;;;;;;11.97;100.00;100902.66;5027618;28;20056;-53
2022/01/27 12:29:58;;;;;;;3.42;0.22;;;;;;;12.08;100.00;100916.94;5014471;28;20068;-53
2022/01/27 12:33:02;;;;;;;0.38;0.25;;;;;;;12.09;100.00;100909.34;5005692;28;20159;-53
2022/01/27 12:36:06;;;;;;;0.10;0.10;;;;;;;12.13;100.00;100915.56;4999216;28;20057;-54
2022/01/27 12:39:10;;;;;;;0.20;0.10;;;;;;;12.20;100.00;100906.91;5008661;28;20056;-53
2022/01/27 12:42:15;;;;;;;0.95;0.63;;;;;;;12.31;100.00;100912.81;4988499;28;20060;-53
2022/01/27 12:45:26;;;;;;;0.20;0.20;;;;;;;12.49;100.00;100918.47;4962078;28;20416;-52
2022/01/27 12:48:29;;;;;;;0.10;0.10;;;;;;;12.59;100.00;100928.41;4979433;28;20435;-53
2022/01/27 12:51:56;;;;;;;0.10;0.03;;;;;;;12.67;100.00;100923.28;4958307;28;20135;-53
2022/01/27 12:54:59;;;;;;;10.90;1.27;;;;;;;12.65;100.00;100942.53;5006070;28;20053;-54
2022/01/27 12:58:11;;;;;;;4.70;0.40;;;;;;;12.58;100.00;100937.25;5027997;28;20049;-52
2022/01/27 13:01:16;;;;;;;0.32;0.32;;;;;;;12.49;100.00;100929.63;5012182;28;20532;-52
2022/01/27 13:04:24;;;;;;;0.55;0.30;;;;;;;12.39;100.00;100941.25;5006052;28;20104;-52
2022/01/27 13:07:29;;;;;;;0.20;0.20;;;;;;;12.43;100.00;100927.91;5030382;28;20059;-51
2022/01/27 13:10:33;;;;;;;1.00;0.30;;;;;;;12.56;100.00;100932.13;5068307;28;20055;-55
2022/01/27 13:13:39;;;;;;;0.25;0.10;;;;;;;12.61;100.00;100941.91;5029572;28;20064;-53
2022/01/27 13:16:48;;;;;;;0.65;0.40;;;;;;;12.53;100.00;100930.25;5033435;28;20557;-52
2022/01/27 13:19:57;;;;;;;0.65;0.20;;;;;;;12.48;100.00;100927.28;5030260;28;20104;-52
2022/01/27 13:23:19;;;;;;;0.10;0.10;;;;;;;12.48;100.00;100927.28;5041947;28;20150;-52
2022/01/27 13:26:22;;;;;;;0.10;0.00;;;;;;;12.67;100.00;100948.44;5030504;28;20056;-52
2022/01/27 13:29:29;;;;;;;0.10;0.00;;;;;;;12.66;100.00;100958.06;5006964;28;20115;-52
2022/01/27 13:32:32;;;;;;;0.10;0.10;;;;;;;12.61;100.00;100947.50;5005528;28;20056;-51
2022/01/27 13:35:36;;;;;;;0.20;0.20;;;;;;;12.53;100.00;100957.44;5053727;28;20076;-52
2022/01/27 13:42:07;;;;;;;0.13;0.13;;;;;;;12.36;100.00;100970.09;4966568;28;20061;-51
2022/01/27 13:45:11;;;;;;;0.10;0.10;;;;;;;12.31;100.00;100974.28;4994423;28;20070;-53
2022/01/27 13:48:20;;;;;;;1.10;0.20;;;;;;;12.25;100.00;100964.94;4991295;28;20517;-53
2022/01/27 13:51:23;;;;;;;3.17;1.15;;;;;;;12.22;100.00;100970.66;5010851;28;20096;-51
2022/01/27 13:54:29;;;;;;;0.90;0.20;;;;;;;12.13;100.00;100969.41;5023609;28;20064;-52
2022/01/27 13:57:36;;;;;;;0.55;0.20;;;;;;;12.18;100.00;100982.75;5022266;28;20064;-52
2022/01/27 14:00:41;;;;;;;0.30;0.10;;;;;;;12.27;100.00;100978.44;5051650;28;20063;-52
2022/01/27 14:03:46;;;;;;;0.65;0.20;;;;;;;12.22;100.00;100979.03;4968604;28;20049;-51
2022/01/27 14:06:56;;;;;;;0.22;0.22;;;;;;;12.31;100.00;100995.84;4998998;28;20517;-51
2022/01/27 14:10:11;;;;;;;0.50;0.32;;;;;;;12.40;100.00;100995.88;5013339;28;20060;-53
2022/01/27 14:13:24;;;;;;;0.52;0.43;;;;;;;12.52;100.00;101000.56;4994663;28;20060;-53
2022/01/27 14:16:30;;;;;;;0.85;0.25;;;;;;;12.51;100.00;101010.97;4997809;28;20068;-53
2022/01/27 14:19:34;;;;;;;0.30;0.30;;;;;;;12.47;100.00;100996.38;5009958;28;20048;-53
2022/01/27 14:22:41;;;;;;;0.10;0.10;;;;;;;12.40;100.00;101001.47;5033399;28;22602;-53
2022/01/27 14:25:57;;;;;;;3.40;0.65;;;;;;;12.32;100.00;101014.94;5017401;28;20064;-53
2022/01/27 14:29:21;;;;;;;4.95;0.52;;;;;;;12.23;100.00;101025.28;5036027;28;20056;-52
2022/01/27 14:32:25;;;;;;;0.55;0.20;;;;;;;12.22;100.00;101020.94;4996832;28;20068;-52
2022/01/27 14:35:28;;;;;;;1.65;0.40;;;;;;;12.22;100.00;101034.91;5033076;28;20525;-52
2022/01/27 14:38:31;;;;;;;0.90;0.30;;;;;;;12.26;100.00;101039.09;5002206;28;20057;-52
2022/01/27 14:41:36;;;;;;;15.35;1.00;;;;;;;12.25;100.00;101029.19;5030174;28;20068;-52
2022/01/27 14:44:39;;;;;;;0.65;0.52;;;;;;;12.24;100.00;101035.22;5012365;28;20049;-52
2022/01/27 14:47:43;;;;;;;2.00;0.30;;;;;;;12.12;100.00;101031.28;5009583;28;20076;-52
2022/01/27 14:50:47;;;;;;;5.28;0.50;;;;;;;11.98;100.00;101034.63;5029821;28;20060;-52
2022/01/27 14:53:50;;;;;;;3.72;0.28;;;;;;;11.93;100.00;101038.78;5020079;28;20057;-53
2022/01/27 14:56:53;;;;;;;0.50;0.20;;;;;;;11.79;100.00;101050.47;5005953;28;20103;-53
2022/01/27 14:59:57;;;;;;;1.20;0.25;;;;;;;11.79;100.00;101061.66;5006570;28;20524;-53
2022/01/27 15:03:00;;;;;;;5.88;1.42;;;;;;;11.79;100.00;101058.84;4993527;28;20129;-53
2022/01/27 15:06:04;;;;;;;0.10;0.10;;;;;;;11.91;100.00;101071.19;5029201;28;20065;-52
2022/01/27 15:09:07;;;;;;;3.03;0.63;;;;;;;12.11;100.00;101071.59;5002852;28;20064;-53